Chillum, Maryland
Current Conditions -  °F | °C
As of 11:15 AM on Saturday 22 Nov 2014 (Local Time) from KCGS Reporting Station
Clear Clear  
Wind Chill: 36°   Ceiling: Unl
Heat Index: 41°   Visibility: 10mi
Dew Point: 16°   Wind: 8mph
Humidity: 36%   Direction: 200°SSW
Pressure: 30.46"   Gusts: 16mph
Location:  38.9677°N, 76.9584°W
Report Text: KCGS 221615Z AUTO 20007G14KT 160V240 10SM CLR 05/M09 A3046 RMK AO1
Loading
Personal Weather Stations






























Interactive Weather Map New forecast layout! Learn more

10-Day Weather Forecast

Advertisements
Track Severe Weather on mobile